createdAt,value
2023-03-26T00:01:16.569Z,6.89
2023-03-26T00:03:47.148Z,6.87
2023-03-26T00:06:16.524Z,6.87
2023-03-26T00:08:45.653Z,6.85
2023-03-26T00:11:16.008Z,6.85
2023-03-26T00:13:43.880Z,6.88
2023-03-26T00:16:19.721Z,6.86
2023-03-26T00:18:47.274Z,6.85
2023-03-26T00:21:16.146Z,6.85
2023-03-26T00:23:43.756Z,6.84
2023-03-26T00:26:11.059Z,6.85
2023-03-26T00:28:40.393Z,6.85
2023-03-26T00:31:09.816Z,6.84
2023-03-26T00:33:40.803Z,6.83
2023-03-26T00:36:11.171Z,6.83
2023-03-26T00:38:38.851Z,6.82
2023-03-26T00:41:07.945Z,6.80
2023-03-26T00:43:36.140Z,6.78
2023-03-26T00:46:03.342Z,6.74
2023-03-26T00:48:44.016Z,6.70
2023-03-26T00:51:15.223Z,6.67
2023-03-26T00:53:42.420Z,6.63
2023-03-26T00:56:09.707Z,6.60
2023-03-26T00:58:37.164Z,6.56
2023-03-26T01:01:07.104Z,6.56
2023-03-26T01:03:36.524Z,6.51
2023-03-26T01:06:32.749Z,6.51
2023-03-26T01:09:06.862Z,6.51
2023-03-26T01:11:35.752Z,6.52
2023-03-26T01:14:10.184Z,6.49
2023-03-26T01:16:57.124Z,6.49
2023-03-26T01:19:45.162Z,6.49
2023-03-26T01:22:21.065Z,6.47
2023-03-26T01:24:53.149Z,6.43
2023-03-26T01:27:41.137Z,6.38
2023-03-26T01:30:22.611Z,6.32
2023-03-26T01:32:55.696Z,6.34
2023-03-26T01:35:28.265Z,6.33
2023-03-26T01:38:00.807Z,6.30
2023-03-26T01:41:12.271Z,6.29
2023-03-26T01:44:03.117Z,6.28
2023-03-26T01:46:36.119Z,6.26
2023-03-26T01:49:12.836Z,6.28
2023-03-26T01:51:41.914Z,6.25
2023-03-26T01:54:13.341Z,6.22
2023-03-26T01:56:48.987Z,6.19
2023-03-26T01:59:38.742Z,6.20
2023-03-26T02:02:14.116Z,6.20
2023-03-26T02:04:40.665Z,6.21
2023-03-26T02:07:13.132Z,6.23
2023-03-26T02:09:45.807Z,6.26
2023-03-26T02:12:14.662Z,6.29
2023-03-26T02:14:42.864Z,6.32
2023-03-26T02:17:10.814Z,6.35
2023-03-26T02:19:41.926Z,6.35
2023-03-26T02:22:11.310Z,6.37
2023-03-26T02:24:38.736Z,6.37
2023-03-26T02:27:07.770Z,6.36
2023-03-26T02:29:37.857Z,6.30
2023-03-26T02:32:05.472Z,6.29
2023-03-26T02:34:32.351Z,6.28
2023-03-26T02:36:58.795Z,6.23
2023-03-26T02:39:26.231Z,6.25
2023-03-26T02:41:52.690Z,6.28
2023-03-26T02:44:19.204Z,6.29
2023-03-26T02:46:45.785Z,6.30
2023-03-26T02:49:12.287Z,6.30
2023-03-26T02:51:38.815Z,6.34
2023-03-26T02:54:06.963Z,6.39
2023-03-26T02:56:33.497Z,6.42
2023-03-26T02:58:59.942Z,6.45
2023-03-26T03:01:26.761Z,6.48
2023-03-26T03:03:54.175Z,6.50
2023-03-26T03:06:20.847Z,6.54
2023-03-26T03:08:47.640Z,6.54
2023-03-26T03:11:17.002Z,6.57
2023-03-26T03:13:44.716Z,6.61
2023-03-26T03:16:11.229Z,6.65
2023-03-26T03:18:37.773Z,6.70
2023-03-26T03:21:06.062Z,6.71
2023-03-26T03:23:32.875Z,6.74
2023-03-26T03:25:59.302Z,6.73
2023-03-26T03:28:26.609Z,6.75
2023-03-26T03:30:53.221Z,6.76
2023-03-26T03:33:21.431Z,6.80
2023-03-26T03:35:49.550Z,6.80
2023-03-26T03:38:19.307Z,6.82
2023-03-26T03:40:46.091Z,6.84
2023-03-26T03:43:12.523Z,6.86
2023-03-26T03:45:38.938Z,6.88
2023-03-26T03:48:05.882Z,6.91
2023-03-26T03:50:35.052Z,6.93
2023-03-26T03:53:02.905Z,6.97
2023-03-26T03:55:29.966Z,6.99
2023-03-26T03:57:58.286Z,7.00
2023-03-26T04:00:24.784Z,7.04
2023-03-26T04:02:54.383Z,7.08
2023-03-26T04:05:21.228Z,7.13
2023-03-26T04:07:47.654Z,7.16
2023-03-26T04:10:15.954Z,7.18
2023-03-26T04:12:42.365Z,7.20
2023-03-26T04:15:09.079Z,7.22
2023-03-26T04:17:42.335Z,7.22
2023-03-26T04:20:15.520Z,7.24
2023-03-26T04:22:43.429Z,7.25
2023-03-26T04:25:12.327Z,7.25
2023-03-26T04:27:41.606Z,7.25
2023-03-26T04:30:11.274Z,7.26
2023-03-26T04:32:40.323Z,7.26
2023-03-26T04:35:07.171Z,7.27
2023-03-26T04:37:39.869Z,7.27
2023-03-26T04:40:15.432Z,7.28
2023-03-26T04:42:45.897Z,7.29
2023-03-26T04:45:14.899Z,7.28
2023-03-26T04:47:41.822Z,7.28
2023-03-26T04:50:10.247Z,7.29
2023-03-26T04:52:37.518Z,7.29
2023-03-26T04:55:07.573Z,7.29
2023-03-26T04:57:46.242Z,7.28
2023-03-26T05:00:16.326Z,7.28
2023-03-26T05:02:43.337Z,7.28
2023-03-26T05:05:10.717Z,7.27
2023-03-26T05:07:37.419Z,7.26
2023-03-26T05:10:05.033Z,7.26
2023-03-26T05:12:31.548Z,7.25
2023-03-26T05:14:57.967Z,7.25
2023-03-26T05:17:25.252Z,7.23
2023-03-26T05:19:54.478Z,7.19
2023-03-26T05:22:20.945Z,7.18
2023-03-26T05:24:47.378Z,7.18
2023-03-26T05:27:16.908Z,7.17
2023-03-26T05:29:43.919Z,7.17
2023-03-26T05:32:10.895Z,7.15
2023-03-26T05:34:39.152Z,7.16
2023-03-26T05:37:06.793Z,7.17
2023-03-26T05:39:33.750Z,7.17
2023-03-26T05:42:00.189Z,7.16
2023-03-26T05:44:26.865Z,7.13
2023-03-26T05:46:53.491Z,7.11
2023-03-26T05:49:20.183Z,7.09
2023-03-26T05:51:46.606Z,7.07
2023-03-26T05:54:13.020Z,7.06
2023-03-26T05:56:39.526Z,7.06
2023-03-26T05:59:06.758Z,7.13
2023-03-26T06:01:33.251Z,7.12
2023-03-26T06:03:59.772Z,7.12
2023-03-26T06:06:26.468Z,7.12
2023-03-26T06:09:02.195Z,7.15
2023-03-26T06:11:30.960Z,7.17
2023-03-26T06:13:57.618Z,7.18
2023-03-26T06:16:27.822Z,7.20
2023-03-26T06:18:56.888Z,7.22
2023-03-26T06:21:24.828Z,7.27
2023-03-26T06:23:51.751Z,7.26
2023-03-26T06:26:18.449Z,7.26
2023-03-26T06:28:44.902Z,7.26
2023-03-26T06:31:11.873Z,7.28
2023-03-26T06:33:38.506Z,7.29
2023-03-26T06:36:05.939Z,7.33
2023-03-26T06:38:32.387Z,7.36
2023-03-26T06:41:03.553Z,7.38
2023-03-26T06:43:33.543Z,7.39
2023-03-26T06:46:01.273Z,7.44
2023-03-26T06:48:28.247Z,7.45
2023-03-26T06:50:55.083Z,7.48
2023-03-26T06:53:21.684Z,7.50
2023-03-26T06:55:48.144Z,7.50
2023-03-26T06:58:14.707Z,7.51
2023-03-26T07:00:42.272Z,7.53
2023-03-26T07:03:08.859Z,7.56
2023-03-26T07:05:35.363Z,7.58
2023-03-26T07:08:03.015Z,7.59
2023-03-26T07:10:29.479Z,7.58
2023-03-26T07:12:56.056Z,7.57
2023-03-26T07:15:22.588Z,7.56
2023-03-26T07:17:49.117Z,7.57
2023-03-26T07:20:15.779Z,7.56
2023-03-26T07:22:42.667Z,7.58
2023-03-26T07:25:10.045Z,7.57
2023-03-26T07:27:59.993Z,7.56
2023-03-26T07:30:50.645Z,7.56
2023-03-26T07:33:37.676Z,7.62
2023-03-26T07:36:46.716Z,7.63
2023-03-26T07:39:42.785Z,7.64
2023-03-26T07:42:45.401Z,7.68
2023-03-26T07:45:41.498Z,7.78
2023-03-26T07:48:18.664Z,7.80
2023-03-26T07:50:46.144Z,7.82
2023-03-26T07:53:12.802Z,7.89
2023-03-26T07:55:50.331Z,7.91
2023-03-26T07:58:38.214Z,7.91
2023-03-26T08:01:12.340Z,7.87
2023-03-26T08:04:24.062Z,7.88
2023-03-26T08:07:05.694Z,7.91
2023-03-26T08:09:42.166Z,7.92
2023-03-26T08:12:24.495Z,7.86
2023-03-26T08:14:53.819Z,7.86
2023-03-26T08:17:49.077Z,7.89
2023-03-26T08:20:41.475Z,7.82
2023-03-26T08:23:11.969Z,7.84
2023-03-26T08:26:09.350Z,7.85
2023-03-26T08:28:52.941Z,7.86
2023-03-26T08:31:27.517Z,7.86
2023-03-26T08:33:53.921Z,7.84
2023-03-26T08:36:20.474Z,7.78
2023-03-26T08:38:46.992Z,7.72
2023-03-26T08:41:15.032Z,7.69
2023-03-26T08:43:59.965Z,7.67
2023-03-26T08:46:52.200Z,7.65
2023-03-26T08:49:34.058Z,7.61
2023-03-26T08:52:19.227Z,7.61
2023-03-26T08:55:07.766Z,7.62
2023-03-26T08:57:54.357Z,7.61
2023-03-26T09:00:45.940Z,7.59
2023-03-26T09:03:37.219Z,7.55
2023-03-26T09:06:11.415Z,7.51
2023-03-26T09:09:07.608Z,7.45
2023-03-26T09:12:12.872Z,7.43
2023-03-26T09:15:24.834Z,7.39
2023-03-26T09:18:16.094Z,7.38
2023-03-26T09:20:54.827Z,7.39
2023-03-26T09:23:33.592Z,7.39
2023-03-26T09:26:04.470Z,7.41
2023-03-26T09:28:47.033Z,7.44
2023-03-26T09:31:51.464Z,7.45
2023-03-26T09:34:28.741Z,7.38
2023-03-26T09:37:20.393Z,7.36
2023-03-26T09:40:25.282Z,7.33
2023-03-26T09:43:11.234Z,7.36
2023-03-26T09:46:14.705Z,7.35
2023-03-26T09:49:02.088Z,7.34
2023-03-26T09:51:50.243Z,7.31
2023-03-26T09:54:21.709Z,7.31
2023-03-26T09:56:57.826Z,7.30
2023-03-26T09:59:53.354Z,7.30
2023-03-26T10:02:47.710Z,7.30
2023-03-26T10:05:27.853Z,7.25
2023-03-26T10:08:21.783Z,7.23
2023-03-26T10:11:02.158Z,7.19
2023-03-26T10:13:39.163Z,7.17
2023-03-26T10:16:21.351Z,7.20
2023-03-26T10:19:04.331Z,7.26
2023-03-26T10:21:47.360Z,7.28
2023-03-26T10:24:33.022Z,7.27
2023-03-26T10:27:15.220Z,7.27
2023-03-26T10:30:04.032Z,7.27
2023-03-26T10:32:46.806Z,7.23
2023-03-26T10:35:13.190Z,7.24
2023-03-26T10:38:02.232Z,7.26
2023-03-26T10:40:35.704Z,7.25
2023-03-26T10:43:24.123Z,7.23
2023-03-26T10:46:15.669Z,7.20
2023-03-26T10:49:01.000Z,7.10
2023-03-26T10:51:45.314Z,7.00
2023-03-26T10:54:25.821Z,7.03
2023-03-26T10:56:54.327Z,7.11
2023-03-26T10:59:20.934Z,7.05
2023-03-26T11:01:59.543Z,6.97
2023-03-26T11:04:57.123Z,6.96
2023-03-26T11:07:33.769Z,6.90
2023-03-26T11:10:24.222Z,6.94
2023-03-26T11:13:21.857Z,7.02
2023-03-26T11:15:53.402Z,7.05
2023-03-26T11:18:34.922Z,7.22
2023-03-26T11:21:19.165Z,7.24
2023-03-26T11:23:46.769Z,7.22
2023-03-26T11:26:18.494Z,7.38
2023-03-26T11:29:31.135Z,7.48
2023-03-26T11:32:11.625Z,7.48
2023-03-26T11:34:46.952Z,7.41
2023-03-26T11:37:27.136Z,7.28
2023-03-26T11:39:58.648Z,7.10
2023-03-26T11:42:25.721Z,7.05
2023-03-26T11:44:57.256Z,7.01
2023-03-26T11:47:31.874Z,6.93
2023-03-26T11:50:00.655Z,6.91
2023-03-26T11:52:27.516Z,6.93
2023-03-26T11:54:54.146Z,6.96
2023-03-26T11:57:25.797Z,7.03
2023-03-26T12:00:04.326Z,7.09
2023-03-26T12:02:38.113Z,7.14
2023-03-26T12:05:13.362Z,7.14
2023-03-26T12:07:47.434Z,7.22
2023-03-26T12:10:25.580Z,7.27
2023-03-26T12:12:54.930Z,7.34
2023-03-26T12:15:21.874Z,7.44
2023-03-26T12:17:53.367Z,7.53
2023-03-26T12:20:26.174Z,7.62
2023-03-26T12:23:00.906Z,7.75
2023-03-26T12:25:36.272Z,7.86
2023-03-26T12:28:05.620Z,7.91
2023-03-26T12:30:39.557Z,7.99
2023-03-26T12:33:15.031Z,8.09
2023-03-26T12:35:42.210Z,8.14
2023-03-26T12:38:37.580Z,8.13
2023-03-26T12:41:08.557Z,8.23
2023-03-26T12:44:46.780Z,8.31
2023-03-26T12:47:56.642Z,8.31
2023-03-26T12:49:33.531Z,8.34
2023-03-26T12:52:44.127Z,8.31
2023-03-26T12:55:31.363Z,8.34
2023-03-26T12:58:25.779Z,8.34
2023-03-26T13:01:05.996Z,8.37
2023-03-26T13:03:53.190Z,8.36
2023-03-26T13:06:59.057Z,8.33
2023-03-26T13:09:27.697Z,8.41
2023-03-26T13:12:23.158Z,8.39
2023-03-26T13:15:08.963Z,8.41
2023-03-26T13:17:48.440Z,8.54
2023-03-26T13:20:41.932Z,8.52
2023-03-26T13:23:14.500Z,8.46
2023-03-26T13:26:12.843Z,8.41
2023-03-26T13:29:15.855Z,8.47
2023-03-26T13:31:53.449Z,8.41
2023-03-26T13:34:55.166Z,8.38
2023-03-26T13:37:55.809Z,8.52
2023-03-26T13:40:42.433Z,8.53
2023-03-26T13:43:32.417Z,8.64
2023-03-26T13:46:41.141Z,8.67
2023-03-26T13:49:29.172Z,8.68
2023-03-26T13:52:04.409Z,8.77
2023-03-26T13:54:45.849Z,8.68
2023-03-26T13:57:21.554Z,8.67
2023-03-26T13:59:57.840Z,8.66
2023-03-26T14:02:40.639Z,8.64
2023-03-26T14:05:19.529Z,8.63
2023-03-26T14:07:55.103Z,8.68
2023-03-26T14:10:27.277Z,8.73
2023-03-26T14:13:15.366Z,8.63
2023-03-26T14:15:57.162Z,8.50
2023-03-26T14:18:42.392Z,8.35
2023-03-26T14:21:36.603Z,8.38
2023-03-26T14:24:21.431Z,8.33
2023-03-26T14:26:58.414Z,8.26
2023-03-26T14:29:29.983Z,8.23
2023-03-26T14:32:09.163Z,8.26
2023-03-26T14:35:06.663Z,8.24
2023-03-26T14:37:50.930Z,8.18
2023-03-26T14:40:33.048Z,8.22
2023-03-26T14:43:20.943Z,8.23
2023-03-26T14:46:07.516Z,8.28
2023-03-26T14:48:48.096Z,8.24
2023-03-26T14:51:52.192Z,8.11
2023-03-26T14:54:27.861Z,8.08
2023-03-26T14:57:32.970Z,8.02
2023-03-26T15:00:27.639Z,7.91
2023-03-26T15:03:09.627Z,7.91
2023-03-26T15:06:16.252Z,7.92
2023-03-26T15:09:04.254Z,7.86
2023-03-26T15:11:45.865Z,7.74
2023-03-26T15:14:51.050Z,7.68
2023-03-26T15:17:49.851Z,7.61
2023-03-26T15:21:13.655Z,7.70
2023-03-26T15:24:12.159Z,7.81
2023-03-26T15:27:09.689Z,7.91
2023-03-26T15:30:11.601Z,7.83
2023-03-26T15:33:17.973Z,7.83
2023-03-26T15:36:21.951Z,7.77
2023-03-26T15:39:06.836Z,7.68
2023-03-26T15:42:06.440Z,7.63
2023-03-26T15:44:50.764Z,7.62
2023-03-26T15:47:46.344Z,7.53
2023-03-26T15:50:16.065Z,7.46
2023-03-26T15:53:09.602Z,7.46
2023-03-26T15:56:05.762Z,7.38
2023-03-26T15:58:44.131Z,7.36
2023-03-26T16:01:48.490Z,7.24
2023-03-26T16:04:35.990Z,7.19
2023-03-26T16:07:23.908Z,7.12
2023-03-26T16:10:02.221Z,7.09
2023-03-26T16:12:46.283Z,7.03
2023-03-26T16:15:26.888Z,7.01
2023-03-26T16:18:09.357Z,7.06
2023-03-26T16:20:50.843Z,7.07
2023-03-26T16:23:34.483Z,7.02
2023-03-26T16:26:43.556Z,7.05
2023-03-26T16:29:26.034Z,7.01
2023-03-26T16:32:25.998Z,6.96
2023-03-26T16:35:15.628Z,6.95
2023-03-26T16:37:49.931Z,6.94
2023-03-26T16:40:16.517Z,6.89
2023-03-26T16:43:06.277Z,6.86
2023-03-26T16:45:43.633Z,6.84
2023-03-26T16:48:27.714Z,6.81
2023-03-26T16:51:10.105Z,6.78
2023-03-26T16:54:17.435Z,6.73
2023-03-26T16:56:55.084Z,6.69
2023-03-26T17:00:05.755Z,6.71
2023-03-26T17:02:41.745Z,6.65
2023-03-26T17:05:19.788Z,6.59
2023-03-26T17:08:01.275Z,6.53
2023-03-26T17:11:00.449Z,6.47
2023-03-26T17:13:50.794Z,6.39
2023-03-26T17:16:47.666Z,6.33
2023-03-26T17:19:14.080Z,6.25
2023-03-26T17:21:52.240Z,6.20
2023-03-26T17:24:33.410Z,6.18
2023-03-26T17:27:25.258Z,6.19
2023-03-26T17:30:21.032Z,6.16
2023-03-26T17:33:13.589Z,6.14
2023-03-26T17:35:44.651Z,6.13
2023-03-26T17:38:17.266Z,6.11
2023-03-26T17:40:56.752Z,6.08
2023-03-26T17:43:46.528Z,6.04
2023-03-26T17:46:36.480Z,6.01
2023-03-26T17:49:12.050Z,5.98
2023-03-26T17:52:06.857Z,5.94
2023-03-26T17:54:41.285Z,5.88
2023-03-26T17:57:39.955Z,5.84
2023-03-26T18:00:09.193Z,5.81
2023-03-26T18:02:43.303Z,5.80
2023-03-26T18:05:13.677Z,5.72
2023-03-26T18:08:06.107Z,5.59
2023-03-26T18:11:01.385Z,5.44
2023-03-26T18:13:52.072Z,5.36
2023-03-26T18:16:49.596Z,5.35
2023-03-26T18:19:22.648Z,5.34
2023-03-26T18:21:56.769Z,5.34
2023-03-26T18:24:37.607Z,5.39
2023-03-26T18:27:22.194Z,5.41
2023-03-26T18:30:01.708Z,5.45
2023-03-26T18:32:33.175Z,5.48
2023-03-26T18:35:13.351Z,5.47
2023-03-26T18:37:40.338Z,5.50
2023-03-26T18:40:24.299Z,5.49
2023-03-26T18:43:01.068Z,5.47
2023-03-26T18:45:33.542Z,5.48
2023-03-26T18:48:04.546Z,5.46
2023-03-26T18:50:36.929Z,5.43
2023-03-26T18:53:06.153Z,5.42
2023-03-26T18:55:39.173Z,5.35
2023-03-26T18:58:23.494Z,5.21
2023-03-26T19:00:52.845Z,5.14
2023-03-26T19:03:24.453Z,5.06
2023-03-26T19:05:53.672Z,4.99
2023-03-26T19:08:23.704Z,4.89
2023-03-26T19:10:51.913Z,4.91
2023-03-26T19:13:21.363Z,4.87
2023-03-26T19:15:51.263Z,4.88
2023-03-26T19:18:22.192Z,4.91
2023-03-26T19:20:52.993Z,4.90
2023-03-26T19:23:28.525Z,4.89
2023-03-26T19:25:57.053Z,4.87
2023-03-26T19:28:27.922Z,4.88
2023-03-26T19:31:06.216Z,4.82
2023-03-26T19:33:34.836Z,4.73
2023-03-26T19:36:17.705Z,4.64
2023-03-26T19:38:53.219Z,4.58
2023-03-26T19:41:25.663Z,4.52
2023-03-26T19:43:59.075Z,4.50
2023-03-26T19:46:27.655Z,4.52
2023-03-26T19:48:56.440Z,4.48
2023-03-26T19:51:36.888Z,4.49
2023-03-26T19:54:13.852Z,4.49
2023-03-26T19:56:40.552Z,4.50
2023-03-26T19:59:07.283Z,4.52
2023-03-26T20:01:33.848Z,4.52
2023-03-26T20:04:06.516Z,4.52
2023-03-26T20:06:43.400Z,4.48
2023-03-26T20:09:12.869Z,4.48
2023-03-26T20:11:40.643Z,4.48
2023-03-26T20:14:15.715Z,4.50
2023-03-26T20:16:45.032Z,4.47
2023-03-26T20:19:13.902Z,4.43
2023-03-26T20:21:41.470Z,4.45
2023-03-26T20:24:13.053Z,4.46
2023-03-26T20:26:39.469Z,4.46
2023-03-26T20:29:06.159Z,4.51
2023-03-26T20:31:32.723Z,4.49
2023-03-26T20:33:59.388Z,4.52
2023-03-26T20:36:34.077Z,4.48
2023-03-26T20:39:08.422Z,4.42
2023-03-26T20:41:38.055Z,4.38
2023-03-26T20:44:13.430Z,4.34
2023-03-26T20:46:39.851Z,4.30
2023-03-26T20:49:06.651Z,4.25
2023-03-26T20:51:33.072Z,4.20
2023-03-26T20:54:00.516Z,4.18
2023-03-26T20:56:27.091Z,4.16
2023-03-26T20:59:09.964Z,4.11
2023-03-26T21:01:38.447Z,4.02
2023-03-26T21:04:05.400Z,4.00
2023-03-26T21:06:31.991Z,3.94
2023-03-26T21:08:58.829Z,3.86
2023-03-26T21:11:47.580Z,3.79
2023-03-26T21:14:25.415Z,3.69
2023-03-26T21:16:52.525Z,3.59
2023-03-26T21:19:20.053Z,3.50
2023-03-26T21:21:50.598Z,3.43
2023-03-26T21:24:44.961Z,3.36
2023-03-26T21:27:26.442Z,3.27
2023-03-26T21:29:54.389Z,3.22
2023-03-26T21:32:22.450Z,3.17
2023-03-26T21:34:58.758Z,3.09
2023-03-26T21:37:26.855Z,3.02
2023-03-26T21:39:53.617Z,2.98
2023-03-26T21:42:20.373Z,2.95
2023-03-26T21:44:47.602Z,2.87
2023-03-26T21:47:14.839Z,2.85
2023-03-26T21:49:41.602Z,2.83
2023-03-26T21:52:13.555Z,2.83
2023-03-26T21:54:43.268Z,2.81
2023-03-26T21:57:17.662Z,2.79
2023-03-26T21:59:56.524Z,2.79
2023-03-26T22:02:32.164Z,2.81
2023-03-26T22:05:12.517Z,2.84
2023-03-26T22:07:50.877Z,2.89
2023-03-26T22:10:17.757Z,2.94
2023-03-26T22:12:44.396Z,2.99
2023-03-26T22:15:13.831Z,3.05
2023-03-26T22:17:43.706Z,3.14
2023-03-26T22:20:12.492Z,3.19
2023-03-26T22:22:48.640Z,3.20
2023-03-26T22:25:17.714Z,3.25
2023-03-26T22:27:46.130Z,3.28
2023-03-26T22:30:13.932Z,3.32
2023-03-26T22:32:40.781Z,3.30
2023-03-26T22:35:07.649Z,3.28
2023-03-26T22:37:35.558Z,3.23
2023-03-26T22:40:02.051Z,3.21
2023-03-26T22:42:28.457Z,3.16
2023-03-26T22:44:54.937Z,3.13
2023-03-26T22:47:21.787Z,3.09
2023-03-26T22:49:48.227Z,3.05
2023-03-26T22:52:14.644Z,3.00
2023-03-26T22:54:41.283Z,2.93
2023-03-26T22:57:08.028Z,2.89
2023-03-26T22:59:34.490Z,2.85
2023-03-26T23:02:01.229Z,2.80
2023-03-26T23:04:31.721Z,2.73
2023-03-26T23:06:58.800Z,2.68
2023-03-26T23:09:25.377Z,2.64
2023-03-26T23:11:51.814Z,2.61
2023-03-26T23:14:19.012Z,2.61
2023-03-26T23:16:48.456Z,2.62
2023-03-26T23:19:14.985Z,2.61
2023-03-26T23:21:41.442Z,2.62
2023-03-26T23:24:08.147Z,2.63
2023-03-26T23:26:43.948Z,2.64
2023-03-26T23:29:16.438Z,2.68
2023-03-26T23:31:42.989Z,2.70
2023-03-26T23:34:10.041Z,2.74
2023-03-26T23:36:36.445Z,2.75
2023-03-26T23:39:04.664Z,2.74
2023-03-26T23:41:31.284Z,2.73
2023-03-26T23:43:57.684Z,2.74
2023-03-26T23:46:30.082Z,2.80
2023-03-26T23:48:59.833Z,2.84
2023-03-26T23:51:26.995Z,2.86
2023-03-26T23:53:53.704Z,2.86
2023-03-26T23:56:20.236Z,2.86
2023-03-26T23:58:47.664Z,2.89
